createdAt,value
2018-07-02T00:01:14.448Z,48.40
2018-07-02T00:03:42.476Z,48.50
2018-07-02T00:06:34.813Z,48.30
2018-07-02T00:09:03.161Z,48.40
2018-07-02T00:11:31.396Z,48.80
2018-07-02T00:16:27.824Z,48.80
2018-07-02T00:18:55.920Z,49.10
2018-07-02T00:21:23.969Z,49.10
2018-07-02T00:23:52.288Z,49.20
2018-07-02T00:26:20.379Z,49.30
2018-07-02T00:28:48.449Z,49.60
2018-07-02T00:31:16.486Z,49.40
2018-07-02T00:33:44.875Z,49.60
2018-07-02T00:36:13.096Z,49.60
2018-07-02T00:43:37.799Z,49.90
2018-07-02T00:46:05.895Z,49.90
2018-07-02T00:48:33.963Z,49.90
2018-07-02T00:51:02.043Z,49.70
2018-07-02T00:53:30.129Z,50.00
2018-07-02T00:55:58.275Z,50.20
2018-07-02T00:58:26.411Z,50.50
2018-07-02T01:00:54.540Z,50.40
2018-07-02T01:03:22.692Z,50.80
2018-07-02T01:05:50.758Z,50.70
2018-07-02T01:08:18.833Z,50.70
2018-07-02T01:10:46.880Z,50.80
2018-07-02T01:13:21.919Z,50.90
2018-07-02T01:15:49.956Z,51.00
2018-07-02T01:18:20.113Z,51.40
2018-07-02T01:25:44.371Z,51.30
2018-07-02T01:28:12.419Z,51.60
2018-07-02T01:30:43.022Z,51.80
2018-07-02T01:33:12.229Z,51.70
2018-07-02T01:35:40.397Z,51.70
2018-07-02T01:38:08.432Z,51.70
2018-07-02T01:40:36.508Z,51.70
2018-07-02T01:43:04.552Z,51.60
2018-07-02T01:45:32.584Z,51.40
2018-07-02T01:48:01.633Z,51.50
2018-07-02T01:50:30.092Z,51.30
2018-07-02T01:52:58.131Z,51.50
2018-07-02T01:55:26.236Z,51.60
2018-07-02T01:57:54.392Z,51.60
2018-07-02T02:00:22.482Z,51.60
2018-07-02T02:02:50.513Z,51.70
2018-07-02T02:05:18.565Z,51.90
2018-07-02T02:07:46.668Z,52.10
2018-07-02T02:10:14.709Z,52.00
2018-07-02T02:15:10.624Z,52.20
2018-07-02T02:17:38.844Z,52.60
2018-07-02T02:20:06.879Z,52.90
2018-07-02T02:22:34.956Z,53.10
2018-07-02T02:25:04.649Z,53.10
2018-07-02T02:27:32.830Z,53.20
2018-07-02T02:30:01.129Z,53.20
2018-07-02T02:32:29.201Z,53.20
2018-07-02T02:34:57.256Z,53.40
2018-07-02T02:37:25.312Z,53.50
2018-07-02T02:39:53.338Z,53.60
2018-07-02T02:42:21.412Z,53.60
2018-07-02T02:44:49.508Z,53.60
2018-07-02T02:49:53.256Z,54.50
2018-07-02T02:54:49.154Z,54.10
2018-07-02T02:59:51.820Z,54.30
2018-07-02T03:02:19.904Z,54.10
2018-07-02T03:04:47.946Z,54.20
2018-07-02T03:07:16.009Z,54.40
2018-07-02T03:09:44.095Z,54.50
2018-07-02T03:12:12.179Z,54.40
2018-07-02T03:14:40.247Z,54.50
2018-07-02T03:17:08.336Z,54.50
2018-07-02T03:19:36.415Z,54.60
2018-07-02T03:22:04.509Z,54.60
2018-07-02T03:24:32.540Z,54.70
2018-07-02T03:27:00.576Z,54.90
2018-07-02T03:29:28.789Z,55.00
2018-07-02T03:31:56.864Z,54.90
2018-07-02T03:34:24.920Z,55.10
2018-07-02T03:36:53.589Z,54.90
2018-07-02T03:39:21.677Z,55.00
2018-07-02T03:41:49.749Z,55.20
2018-07-02T03:44:17.822Z,55.30
2018-07-02T03:46:45.856Z,55.00
2018-07-02T03:49:13.994Z,54.80
2018-07-02T03:51:42.137Z,54.90
2018-07-02T03:54:10.273Z,54.90
2018-07-02T03:56:38.334Z,54.90
2018-07-02T03:59:06.390Z,55.10
2018-07-02T04:01:34.546Z,54.80
2018-07-02T04:04:02.620Z,55.00
2018-07-02T04:06:30.710Z,55.10
2018-07-02T04:08:58.774Z,55.30
2018-07-02T04:11:26.816Z,55.60
2018-07-02T04:13:55.030Z,55.60
2018-07-02T04:16:23.093Z,55.60
2018-07-02T04:18:55.408Z,56.00
2018-07-02T04:21:23.478Z,56.30
2018-07-02T04:23:51.527Z,56.60
2018-07-02T04:26:19.588Z,56.40
2018-07-02T04:28:47.618Z,56.30
2018-07-02T04:31:15.653Z,56.30
2018-07-02T04:33:43.700Z,56.10
2018-07-02T04:36:11.765Z,56.00
2018-07-02T04:38:39.784Z,56.10
2018-07-02T04:41:07.826Z,56.60
2018-07-02T04:43:35.852Z,56.50
2018-07-02T04:46:03.917Z,56.30
2018-07-02T04:48:32.233Z,56.40
2018-07-02T04:51:00.111Z,56.40
2018-07-02T04:53:28.144Z,56.90
2018-07-02T04:55:56.185Z,56.90
2018-07-02T04:58:24.244Z,56.50
2018-07-02T05:00:52.269Z,56.20
2018-07-02T05:03:20.307Z,56.20
2018-07-02T05:05:48.349Z,56.30
2018-07-02T05:08:16.409Z,56.10
2018-07-02T05:10:44.449Z,56.30
2018-07-02T05:15:40.381Z,56.50
2018-07-02T05:18:08.421Z,56.40
2018-07-02T05:20:36.456Z,56.10
2018-07-02T05:23:04.509Z,55.90
2018-07-02T05:25:32.565Z,55.80
2018-07-02T05:28:00.608Z,55.80
2018-07-02T05:30:28.730Z,55.60
2018-07-02T05:32:56.771Z,55.60
2018-07-02T05:35:24.864Z,56.20
2018-07-02T05:37:52.924Z,55.40
2018-07-02T05:40:21.750Z,55.00
2018-07-02T05:42:49.792Z,54.70
2018-07-02T05:45:17.882Z,54.60
2018-07-02T05:47:45.897Z,54.50
2018-07-02T05:50:13.923Z,54.60
2018-07-02T05:52:41.979Z,54.20
2018-07-02T05:55:10.019Z,54.60
2018-07-02T06:00:06.051Z,53.50
2018-07-02T06:02:34.268Z,53.30
2018-07-02T06:05:02.285Z,53.30
2018-07-02T06:07:30.313Z,53.30
2018-07-02T06:09:58.416Z,53.20
2018-07-02T06:12:26.485Z,53.10
2018-07-02T06:14:54.601Z,53.30
2018-07-02T06:17:22.717Z,53.20
2018-07-02T06:19:50.898Z,53.10
2018-07-02T06:22:18.937Z,52.90
2018-07-02T06:24:47.052Z,53.00
2018-07-02T06:29:42.993Z,52.90
2018-07-02T06:32:11.064Z,53.00
2018-07-02T06:34:39.155Z,52.90
2018-07-02T06:37:07.239Z,52.30
2018-07-02T06:39:35.272Z,52.00
2018-07-02T06:44:31.325Z,51.80
2018-07-02T06:49:27.417Z,50.80
2018-07-02T06:51:55.981Z,50.50
2018-07-02T06:54:24.020Z,50.00
2018-07-02T06:56:52.308Z,50.00
2018-07-02T06:59:20.341Z,49.80
2018-07-02T07:01:48.668Z,49.60
2018-07-02T07:04:16.708Z,48.90
2018-07-02T07:06:44.762Z,48.60
2018-07-02T07:09:13.120Z,47.70
2018-07-02T07:14:09.348Z,46.50
2018-07-02T07:16:37.538Z,45.50
2018-07-02T07:21:33.472Z,44.90
2018-07-02T07:24:01.554Z,44.20
2018-07-02T07:26:29.574Z,44.10
2018-07-02T07:28:57.624Z,43.60
2018-07-02T07:31:25.652Z,43.50
2018-07-02T07:33:53.705Z,43.00
2018-07-02T07:36:21.730Z,42.60
2018-07-02T07:38:49.783Z,40.30
2018-07-02T07:41:17.809Z,40.00
2018-07-02T07:46:13.700Z,38.00
2018-07-02T07:48:41.801Z,36.90
2018-07-02T07:51:10.101Z,36.10
2018-07-02T07:53:38.177Z,36.90
2018-07-02T07:56:06.367Z,37.40
2018-07-02T07:58:34.417Z,34.30
2018-07-02T08:01:02.461Z,34.50
2018-07-02T08:03:30.562Z,35.20
2018-07-02T08:05:58.599Z,31.50
2018-07-02T08:08:26.762Z,31.00
2018-07-02T08:10:54.817Z,32.00
2018-07-02T08:13:22.841Z,29.70
2018-07-02T08:15:50.965Z,30.70
2018-07-02T08:18:18.996Z,29.90
2018-07-02T08:20:47.349Z,29.20
2018-07-02T08:23:15.384Z,28.10
2018-07-02T08:25:43.447Z,27.70
2018-07-02T08:28:11.548Z,27.80
2018-07-02T08:30:39.592Z,28.10
2018-07-02T08:33:07.703Z,28.60
2018-07-02T08:35:35.702Z,27.70
2018-07-02T08:38:04.036Z,27.00
2018-07-02T08:40:32.089Z,28.50
2018-07-02T08:43:00.175Z,27.80
2018-07-02T08:45:28.237Z,27.00
2018-07-02T08:47:56.269Z,27.90
2018-07-02T08:50:24.327Z,26.40
2018-07-02T08:52:52.345Z,25.30
2018-07-02T08:55:20.393Z,25.70
2018-07-02T08:57:48.429Z,24.70
2018-07-02T09:00:16.566Z,25.10
2018-07-02T09:02:44.598Z,25.50
2018-07-02T09:05:12.639Z,25.30
2018-07-02T09:07:40.681Z,24.80
2018-07-02T09:10:08.841Z,26.40
2018-07-02T09:12:36.888Z,25.60
2018-07-02T09:15:05.120Z,26.80
2018-07-02T09:17:33.205Z,26.30
2018-07-02T09:20:01.250Z,25.60
2018-07-02T09:22:29.337Z,25.10
2018-07-02T09:24:57.378Z,25.30
2018-07-02T09:27:25.429Z,24.10
2018-07-02T09:29:53.501Z,25.20
2018-07-02T09:32:21.570Z,25.20
2018-07-02T09:34:49.537Z,25.40
2018-07-02T09:37:17.613Z,24.50
2018-07-02T09:39:45.671Z,25.40
2018-07-02T09:42:13.696Z,24.20
2018-07-02T09:44:41.744Z,24.60
2018-07-02T09:47:09.814Z,23.50
2018-07-02T09:49:37.856Z,23.30
2018-07-02T09:52:05.928Z,23.80
2018-07-02T09:54:33.973Z,24.10
2018-07-02T09:57:02.057Z,24.10
2018-07-02T09:59:30.128Z,24.70
2018-07-02T10:01:58.173Z,23.60
2018-07-02T10:04:26.244Z,23.90
2018-07-02T10:06:54.284Z,23.60
2018-07-02T10:09:22.368Z,24.10
2018-07-02T10:11:50.422Z,24.90
2018-07-02T10:14:18.487Z,25.10
2018-07-02T10:16:46.561Z,25.50
2018-07-02T10:19:14.621Z,24.30
2018-07-02T10:21:42.694Z,24.00
2018-07-02T10:24:10.860Z,24.20
2018-07-02T10:26:38.894Z,24.00
2018-07-02T10:29:06.928Z,24.00
2018-07-02T10:31:34.978Z,24.70
2018-07-02T10:34:03.036Z,23.90
2018-07-02T10:36:31.120Z,23.90
2018-07-02T10:38:59.191Z,25.00
2018-07-02T10:41:27.232Z,23.40
2018-07-02T10:43:55.256Z,23.80
2018-07-02T10:46:23.312Z,24.10
2018-07-02T10:48:51.364Z,24.30
2018-07-02T10:51:19.424Z,24.20
2018-07-02T10:53:47.498Z,23.90
2018-07-02T10:56:15.609Z,24.10
2018-07-02T10:58:43.741Z,22.80
2018-07-02T11:01:14.215Z,23.20
2018-07-02T11:03:42.455Z,23.10
2018-07-02T11:06:10.556Z,23.20
2018-07-02T11:08:40.022Z,22.60
2018-07-02T11:11:08.053Z,23.50
2018-07-02T11:13:36.176Z,23.10
2018-07-02T11:16:05.257Z,23.40
2018-07-02T11:18:33.344Z,23.80
2018-07-02T11:21:01.389Z,24.20
2018-07-02T11:23:29.465Z,25.00
2018-07-02T11:25:57.529Z,24.50
2018-07-02T11:30:53.540Z,25.10
2018-07-02T11:33:21.573Z,24.90
2018-07-02T11:35:49.640Z,24.70
2018-07-02T11:38:17.978Z,24.30
2018-07-02T11:40:46.294Z,25.10
2018-07-02T11:43:14.385Z,24.50
2018-07-02T11:45:42.492Z,25.20
2018-07-02T11:48:10.654Z,24.50
2018-07-02T11:50:38.808Z,24.80
2018-07-02T11:55:34.869Z,24.70
2018-07-02T11:58:02.976Z,24.90
2018-07-02T12:00:31.045Z,25.10
2018-07-02T12:02:59.213Z,24.30
2018-07-02T12:05:27.290Z,24.40
2018-07-02T12:07:55.324Z,24.90
2018-07-02T12:10:23.377Z,25.20
2018-07-02T12:12:51.500Z,24.90
2018-07-02T12:15:19.614Z,25.70
2018-07-02T12:20:15.552Z,24.70
2018-07-02T12:22:43.585Z,25.20
2018-07-02T12:25:11.661Z,26.20
2018-07-02T12:27:39.715Z,26.20
2018-07-02T12:30:14.345Z,25.50
2018-07-02T12:32:42.482Z,25.50
2018-07-02T12:35:12.171Z,25.60
2018-07-02T12:37:40.775Z,25.90
2018-07-02T12:40:08.800Z,25.80
2018-07-02T12:42:37.049Z,26.10
2018-07-02T12:45:05.470Z,26.80
2018-07-02T12:47:34.816Z,26.50
2018-07-02T12:52:31.921Z,26.10
2018-07-02T12:54:59.956Z,25.70
2018-07-02T12:57:28.022Z,25.80
2018-07-02T12:59:56.087Z,26.00
2018-07-02T13:02:24.159Z,25.60
2018-07-02T13:04:52.649Z,25.90
2018-07-02T13:07:20.832Z,25.70
2018-07-02T13:09:48.869Z,26.00
2018-07-02T13:12:16.934Z,25.30
2018-07-02T13:14:45.125Z,26.20
2018-07-02T13:17:13.156Z,26.40
2018-07-02T13:19:41.206Z,25.90
2018-07-02T13:22:09.268Z,25.40
2018-07-02T13:24:37.306Z,25.90
2018-07-02T13:27:05.361Z,25.80
2018-07-02T13:29:33.392Z,26.00
2018-07-02T13:32:02.045Z,25.90
2018-07-02T13:34:30.064Z,26.50
2018-07-02T13:36:58.124Z,26.70
2018-07-02T13:39:26.186Z,26.30
2018-07-02T13:41:54.269Z,26.20
2018-07-02T13:44:22.319Z,25.90
2018-07-02T13:46:50.357Z,25.90
2018-07-02T13:49:18.440Z,26.30
2018-07-02T13:51:46.464Z,27.00
2018-07-02T13:54:14.524Z,26.50
2018-07-02T13:56:42.545Z,26.60
2018-07-02T13:59:10.596Z,26.70
2018-07-02T14:01:38.636Z,27.30
2018-07-02T14:04:06.676Z,27.30
2018-07-02T14:06:34.790Z,28.00
2018-07-02T14:09:04.791Z,26.40
2018-07-02T14:11:33.029Z,26.90
2018-07-02T14:14:01.049Z,26.40
2018-07-02T14:16:29.126Z,26.70
2018-07-02T14:21:25.006Z,27.20
2018-07-02T14:23:53.021Z,26.90
2018-07-02T14:26:21.068Z,27.10
2018-07-02T14:28:49.689Z,26.80
2018-07-02T14:31:17.712Z,27.00
2018-07-02T14:33:45.745Z,27.30
2018-07-02T14:36:13.864Z,27.60
2018-07-02T14:38:41.924Z,28.10
2018-07-02T14:41:10.022Z,28.00
2018-07-02T14:43:38.449Z,28.00
2018-07-02T14:46:06.525Z,28.30
2018-07-02T14:48:34.561Z,28.20
2018-07-02T14:51:02.752Z,27.70
2018-07-02T14:53:30.740Z,27.60
2018-07-02T14:55:58.809Z,28.20
2018-07-02T14:58:26.928Z,28.00
2018-07-02T15:00:54.981Z,27.50
2018-07-02T15:03:23.036Z,27.60
2018-07-02T15:05:51.065Z,27.60
2018-07-02T15:08:19.126Z,28.00
2018-07-02T15:10:47.210Z,27.80
2018-07-02T15:13:15.272Z,28.60
2018-07-02T15:15:43.309Z,28.10
2018-07-02T15:18:11.379Z,28.40
2018-07-02T15:20:39.405Z,28.10
2018-07-02T15:23:07.433Z,28.00
2018-07-02T15:25:35.465Z,28.80
2018-07-02T15:28:03.512Z,28.70
2018-07-02T15:30:31.577Z,28.60
2018-07-02T15:32:59.772Z,29.00
2018-07-02T15:35:27.821Z,28.40
2018-07-02T15:37:55.890Z,28.70
2018-07-02T15:40:23.953Z,28.60
2018-07-02T15:42:52.049Z,28.70
2018-07-02T15:45:20.087Z,29.20
2018-07-02T15:47:49.176Z,29.30
2018-07-02T15:50:17.244Z,29.20
2018-07-02T15:52:45.272Z,29.10
2018-07-02T15:55:13.449Z,29.20
2018-07-02T15:57:41.569Z,29.20
2018-07-02T16:00:09.675Z,29.30
2018-07-02T16:02:37.756Z,29.30
2018-07-02T16:05:05.836Z,28.90
2018-07-02T16:07:34.266Z,28.70
2018-07-02T16:10:03.280Z,28.70
2018-07-02T16:14:59.329Z,29.40
2018-07-02T16:17:27.408Z,29.40
2018-07-02T16:19:55.921Z,29.30
2018-07-02T16:22:23.969Z,29.90
2018-07-02T16:24:52.033Z,30.10
2018-07-02T16:27:20.194Z,30.60
2018-07-02T16:29:48.256Z,30.00
2018-07-02T16:32:16.615Z,30.30
2018-07-02T16:34:44.652Z,30.30
2018-07-02T16:37:12.748Z,34.20
2018-07-02T16:39:40.801Z,36.00
2018-07-02T16:42:09.060Z,37.30
2018-07-02T16:44:37.121Z,35.30
2018-07-02T16:47:06.077Z,33.70
2018-07-02T16:49:34.737Z,36.80
2018-07-02T16:52:02.884Z,37.80
2018-07-02T16:54:30.989Z,38.10
2018-07-02T16:56:59.045Z,38.00
2018-07-02T16:59:27.120Z,38.10
2018-07-02T17:01:55.201Z,38.00
2018-07-02T17:04:27.326Z,38.30
2018-07-02T17:06:55.406Z,38.70
2018-07-02T17:09:23.590Z,38.50
2018-07-02T17:11:52.143Z,38.70
2018-07-02T17:14:20.209Z,38.60
2018-07-02T17:16:48.318Z,38.70
2018-07-02T17:19:16.392Z,38.90
2018-07-02T17:21:44.431Z,39.40
2018-07-02T17:24:12.501Z,39.80
2018-07-02T17:26:40.575Z,39.80
2018-07-02T17:29:08.615Z,39.90
2018-07-02T17:31:36.724Z,40.30
2018-07-02T17:34:04.813Z,40.40
2018-07-02T17:36:32.840Z,40.60
2018-07-02T17:39:01.528Z,41.50
2018-07-02T17:41:29.579Z,40.80
2018-07-02T17:43:57.636Z,40.70
2018-07-02T17:46:25.680Z,40.90
2018-07-02T17:48:53.845Z,41.10
2018-07-02T17:51:21.986Z,41.20
2018-07-02T17:53:50.060Z,41.20
2018-07-02T17:56:18.117Z,41.60
2018-07-02T17:58:46.315Z,41.50
2018-07-02T18:01:14.519Z,41.30
2018-07-02T18:03:42.580Z,41.50
2018-07-02T18:06:10.668Z,41.30
2018-07-02T18:08:38.778Z,41.70
2018-07-02T18:11:06.862Z,41.90
2018-07-02T18:13:35.050Z,42.20
2018-07-02T18:16:03.143Z,42.10
2018-07-02T18:18:31.173Z,42.20
2018-07-02T18:20:59.337Z,42.20
2018-07-02T18:23:27.377Z,42.20
2018-07-02T18:25:55.497Z,42.10
2018-07-02T18:28:23.579Z,42.20
2018-07-02T18:30:51.669Z,42.20
2018-07-02T18:33:19.819Z,42.40
2018-07-02T18:35:47.890Z,42.50
2018-07-02T18:38:15.952Z,42.80
2018-07-02T18:40:44.004Z,42.80
2018-07-02T18:43:12.364Z,42.80
2018-07-02T18:45:41.736Z,42.40
2018-07-02T18:48:09.907Z,42.30
2018-07-02T18:50:38.030Z,42.40
2018-07-02T18:53:06.576Z,42.70
2018-07-02T18:55:34.653Z,42.80
2018-07-02T18:58:03.160Z,42.40
2018-07-02T19:00:31.250Z,42.60
2018-07-02T19:03:01.077Z,42.60
2018-07-02T19:05:29.757Z,43.00
2018-07-02T19:07:57.838Z,43.00
2018-07-02T19:10:25.939Z,43.20
2018-07-02T19:12:53.980Z,43.30
2018-07-02T19:15:22.048Z,43.20
2018-07-02T19:17:50.142Z,43.50
2018-07-02T19:20:18.251Z,43.60
2018-07-02T19:25:14.622Z,43.70
2018-07-02T19:27:42.758Z,43.90
2018-07-02T19:30:10.897Z,44.00
2018-07-02T19:32:39.258Z,44.30
2018-07-02T19:35:08.582Z,44.50
2018-07-02T19:37:36.777Z,44.90
2018-07-02T19:40:10.388Z,45.60
2018-07-02T19:42:38.532Z,45.40
2018-07-02T19:45:12.141Z,45.50
2018-07-02T19:47:40.204Z,46.20
2018-07-02T19:50:09.711Z,46.20
2018-07-02T19:52:37.965Z,46.40
2018-07-02T19:55:06.447Z,46.40
2018-07-02T19:57:34.620Z,46.60
2018-07-02T20:00:02.796Z,46.70
2018-07-02T20:02:30.864Z,47.00
2018-07-02T20:04:59.764Z,47.60
2018-07-02T20:07:27.853Z,47.60
2018-07-02T20:09:56.005Z,47.70
2018-07-02T20:12:24.194Z,47.70
2018-07-02T20:14:52.473Z,47.70
2018-07-02T20:17:21.187Z,47.80
2018-07-02T20:19:49.409Z,47.80
2018-07-02T20:22:19.304Z,48.20
2018-07-02T20:24:47.398Z,48.00
2018-07-02T20:27:15.678Z,48.00
2018-07-02T20:29:43.748Z,48.10
2018-07-02T20:32:11.841Z,48.40
2018-07-02T20:34:39.910Z,48.40
2018-07-02T20:37:07.981Z,48.90
2018-07-02T20:39:36.046Z,48.70
2018-07-02T20:42:04.177Z,48.90
2018-07-02T20:44:32.246Z,49.00
2018-07-02T20:47:00.331Z,49.50
2018-07-02T20:49:28.444Z,49.60
2018-07-02T20:51:56.546Z,49.80
2018-07-02T20:54:24.593Z,50.00
2018-07-02T20:56:52.948Z,50.60
2018-07-02T20:59:21.062Z,50.70
2018-07-02T21:01:49.125Z,51.10
2018-07-02T21:06:45.664Z,50.90
2018-07-02T21:09:13.819Z,50.90
2018-07-02T21:11:41.889Z,51.30
2018-07-02T21:14:11.493Z,51.20
2018-07-02T21:16:39.841Z,51.20
2018-07-02T21:19:07.917Z,51.10
2018-07-02T21:21:36.615Z,51.20
2018-07-02T21:24:05.094Z,51.30
2018-07-02T21:26:33.315Z,51.00
2018-07-02T21:29:01.336Z,51.20
2018-07-02T21:31:29.424Z,51.30
2018-07-02T21:33:57.468Z,51.60
2018-07-02T21:36:25.595Z,51.60
2018-07-02T21:38:53.710Z,51.60
2018-07-02T21:41:21.780Z,51.60
2018-07-02T21:43:49.869Z,51.90
2018-07-02T21:46:17.984Z,51.90
2018-07-02T21:49:49.423Z,52.40
2018-07-02T21:52:17.504Z,52.60
2018-07-02T21:54:45.599Z,52.90
2018-07-02T21:57:13.629Z,53.30
2018-07-02T21:59:41.688Z,53.60
2018-07-02T22:02:09.840Z,53.40
2018-07-02T22:04:37.893Z,53.20
2018-07-02T22:07:05.971Z,53.90
2018-07-02T22:09:34.108Z,54.00
2018-07-02T22:12:02.147Z,54.20
2018-07-02T22:14:30.320Z,54.40
2018-07-02T22:16:58.939Z,54.60
2018-07-02T22:19:27.064Z,54.50
2018-07-02T22:21:55.468Z,54.60
2018-07-02T22:24:23.656Z,54.60
2018-07-02T22:26:52.425Z,54.80
2018-07-02T22:29:20.500Z,55.10
2018-07-02T22:31:48.569Z,55.40
2018-07-02T22:34:16.630Z,55.70
2018-07-02T22:36:44.674Z,56.20
2018-07-02T22:39:12.931Z,56.70
2018-07-02T22:41:41.044Z,56.90
2018-07-02T22:44:10.123Z,57.40
2018-07-02T22:46:38.243Z,58.00
2018-07-02T22:49:06.689Z,58.30
2018-07-02T22:51:35.635Z,58.60
2018-07-02T22:54:03.684Z,59.30
2018-07-02T22:56:31.870Z,59.60
2018-07-02T22:58:59.920Z,59.80
2018-07-02T23:01:27.981Z,59.70
2018-07-02T23:03:56.062Z,60.00
2018-07-02T23:06:24.116Z,60.60
2018-07-02T23:08:52.260Z,60.70
2018-07-02T23:13:48.209Z,61.20
2018-07-02T23:16:16.266Z,61.90
2018-07-02T23:18:44.332Z,62.10
2018-07-02T23:23:41.995Z,63.10
2018-07-02T23:26:10.137Z,63.20
2018-07-02T23:28:38.200Z,63.10
2018-07-02T23:31:06.248Z,63.10
2018-07-02T23:36:02.476Z,63.60
2018-07-02T23:38:30.573Z,64.30
2018-07-02T23:40:58.672Z,64.40
2018-07-02T23:43:26.722Z,65.00
2018-07-02T23:50:50.520Z,65.80
2018-07-02T23:53:19.665Z,66.30
2018-07-02T23:55:47.722Z,66.60
2018-07-02T23:58:15.768Z,66.60
